Latest Weather Observations for Lockhart River

IDQ60801

Issued at 3:32 pm EST Tuesday 9 February 2016 (issued every 30 minutes, with the page automatically refreshed every 10 minutes)

About weather observations | Map of weather stations | Latest weather observations for QLD | Other Formats
Station Details ID: 028008 Name: LOCKHART RIVER AIRPORT Lat: -12.79 Lon: 143.30 Height: 18.5 m
Data from the previous 72 hours. | See also: Recent months at Lockhart River
Date/Time
EST
Temp
°C
App
Temp
°C
Dew
Point
Rel
Hum
%
Delta-T
°C
Wind Press
QNH
hPa
Press
MSL
hPa
Rain
since 9 am
mm
Dir
 
Spd
km/h
Gust
km/h
Spd
kts
Gust
kts
09/03:30pm 27.2 33.3 25.0 88 1.5 SW 2 6 1 3 1005.6 - 25.0
09/03:00pm 26.7 32.0 24.9 90 1.3 S 6 7 3 4 1006.3 1006.2 25.0
09/02:30pm 26.3 31.7 25.1 93 0.8 SSW 6 11 3 6 1006.6 - 25.0
09/02:00pm 25.3 29.6 24.3 94 0.7 E 9 13 5 7 1006.8 - 24.8
09/01:30pm 25.1 26.5 23.5 91 1.1 N 22 30 12 16 1007.3 - 8.0
09/01:00pm 29.0 30.3 24.1 75 3.4 W 24 32 13 17 1007.3 - 0.0
09/12:30pm 32.9 36.9 23.8 58 6.3 NE 9 15 5 8 1007.4 - 0.0
09/12:00pm 33.6 38.3 23.9 57 6.8 SE 6 11 3 6 1007.8 1007.7 0.0
09/11:30am 33.3 38.0 23.9 58 6.6 ENE 6 11 3 6 1008.3 - 0.0
09/11:00am 32.6 36.8 23.5 58 6.3 ESE 7 17 4 9 1008.7 - 0.0
09/10:30am 32.4 37.1 23.9 61 5.9 SE 6 11 3 6 1009.1 - 0.0
09/10:00am 31.4 35.9 24.0 65 5.2 SSW 7 11 4 6 1009.3 - 0.0
09/09:30am 30.6 35.1 24.0 68 4.6 SE 7 11 4 6 1009.2 - 0.0
09/09:00am 29.6 34.1 24.0 72 3.9 SSW 7 11 4 6 1009.2 1009.1 0.0
09/08:30am 28.9 33.4 23.6 73 3.7 SW 6 9 3 5 1009.2 - 0.0
09/08:00am 27.0 33.2 24.6 87 1.7 CALM 0 0 0 0 1008.9 - 0.0
09/07:30am 25.9 30.9 24.5 92 1.0 NW 6 9 3 5 1008.7 - 0.0
09/07:00am 25.6 31.7 24.4 93 0.8 CALM 0 0 0 0 1008.3 - 0.0
09/06:30am 25.5 30.5 24.5 94 0.7 NNW 6 7 3 4 1008.0 - 0.0
09/06:00am 25.8 32.0 24.6 93 0.8 CALM 0 0 0 0 1007.7 1007.6 0.0
09/05:30am 26.0 32.1 24.4 91 1.1 CALM 0 0 0 0 1007.4 - 0.0
09/05:00am 26.1 31.7 24.3 90 1.2 E 2 7 1 4 1007.3 - 0.0
09/04:30am 26.1 32.1 24.3 90 1.2 CALM 0 6 0 3 1007.2 - 0.0
09/04:00am 26.2 31.9 24.4 90 1.2 N 2 6 1 3 1007.1 - 0.0
09/03:30am 26.1 32.0 24.1 89 1.4 CALM 0 0 0 0 1007.1 - 0.0
09/03:00am 26.4 30.9 23.7 85 1.9 NE 6 7 3 4 1007.2 1007.1 0.0
09/02:30am 27.0 30.7 23.3 80 2.5 S 9 13 5 7 1007.1 - 0.0
09/02:00am 27.1 31.4 23.6 81 2.4 SSW 7 13 4 7 1007.2 - 0.0
09/01:30am 27.1 31.8 24.0 83 2.1 W 6 11 3 6 1007.5 - 0.0
09/01:00am 27.0 31.7 23.9 83 2.1 WSW 6 9 3 5 1008.0 - 0.0
09/12:30am 27.1 32.0 24.6 86 1.7 SW 7 13 4 7 1008.4 - 0.0
09/12:00am 27.2 32.4 24.8 87 1.7 SSE 6 7 3 4 1008.7 1008.6 0.0
 
Date/Time
EST
Temp
°C
App
Temp
°C
Dew
Point
Rel
Hum
%
Delta-T
°C
Wind Press
QNH
hPa
Press
MSL
hPa
Rain
since 9 am
mm
Dir
 
Spd
km/h
Gust
km/h
Spd
kts
Gust
kts
08/11:30pm 27.1 31.7 24.7 87 1.7 SSW 9 13 5 7 1008.8 - 0.0
08/11:00pm 27.0 31.6 24.8 88 1.5 WSW 9 15 5 8 1008.5 - 0.0
08/10:30pm 26.8 33.4 25.2 91 1.1 CALM 0 0 0 0 1008.6 - 0.0
08/10:00pm 26.9 33.7 25.5 92 1.0 CALM 0 0 0 0 1008.8 - 0.0
08/09:30pm 26.9 32.8 25.9 94 0.7 NW 6 7 3 4 1008.8 - 0.0
08/09:00pm 27.3 34.0 25.9 92 1.0 N 2 6 1 3 1008.3 1008.2 0.0
08/08:30pm 27.3 34.3 25.9 92 1.0 CALM 0 0 0 0 1008.5 - 0.0
08/08:00pm 27.4 34.4 25.8 91 1.1 CALM 0 0 0 0 1008.2 - 0.0
08/07:30pm 27.5 34.3 25.5 89 1.4 CALM 0 0 0 0 1007.5 - 0.0
08/07:00pm 28.1 35.1 25.9 88 1.6 CALM 0 0 0 0 1006.9 - 0.0
08/06:30pm 28.2 34.1 25.4 85 2.0 WNW 4 7 2 4 1006.3 - 0.0
08/06:00pm 28.3 33.8 26.1 88 1.6 NW 9 9 5 5 1006.3 1006.2 0.0
08/05:30pm 29.0 35.7 25.4 81 2.5 CALM 0 6 0 3 1006.2 - 0.0
08/05:00pm 28.5 34.3 25.1 82 2.4 E 4 6 2 3 1006.0 - 0.0
08/04:30pm 28.0 32.7 25.0 84 2.1 W 9 15 5 8 1005.9 - 0.0
08/04:00pm 28.0 33.1 25.0 84 2.1 ESE 7 11 4 6 1005.6 - 0.0
08/03:30pm 27.7 32.1 24.5 83 2.2 SSE 9 13 5 7 1005.7 - 0.0
08/03:00pm 27.9 31.8 24.3 81 2.5 SSE 11 15 6 8 1006.0 1005.9 0.0
08/02:30pm 29.2 34.1 25.2 79 2.8 SSE 9 15 5 8 1006.8 - 0.0
08/02:00pm 29.8 35.0 25.1 76 3.3 E 7 13 4 7 1007.2 - 0.0
08/01:30pm 29.6 33.9 24.9 76 3.3 E 11 17 6 9 1007.5 - 0.0
08/01:00pm 31.3 36.0 25.6 71 4.0 E 11 17 6 9 1008.0 - 0.0
08/12:30pm 32.0 36.6 24.1 63 5.5 N 7 19 4 10 1008.3 - 0.0
08/12:00pm 33.3 36.7 22.7 53 7.3 NW 9 17 5 9 1008.6 1008.5 0.0
08/11:30am 33.7 38.1 23.4 55 7.2 NW 6 13 3 7 1009.2 - 0.0
08/11:00am 33.4 37.6 23.1 54 7.1 SW 6 11 3 6 1009.6 - 0.0
08/10:30am 32.7 37.2 23.9 60 6.1 S 7 11 4 6 1009.7 - 0.0
08/10:00am 32.0 35.8 23.5 60 5.9 WSW 9 17 5 9 1009.6 - 0.0
08/09:30am 31.0 34.2 23.1 63 5.4 WSW 11 17 6 9 1009.7 - 0.0
08/09:00am 30.5 33.5 23.4 66 4.9 W 13 17 7 9 1009.8 1009.7 0.0
08/08:30am 29.7 34.1 23.4 69 4.3 WSW 6 11 3 6 1009.7 - 0.0
08/08:00am 28.6 34.3 23.7 75 3.4 CALM 0 0 0 0 1009.5 - 0.0
08/07:30am 27.8 32.5 23.4 77 3.0 WSW 4 9 2 5 1009.2 - 0.0
08/07:00am 27.4 31.4 23.8 81 2.5 W 9 13 5 7 1008.9 - 0.0
08/06:30am 27.2 31.4 23.4 80 2.6 SW 7 9 4 5 1008.4 - 0.0
08/06:00am 27.4 31.7 23.6 80 2.6 W 7 13 4 7 1008.0 - 0.0
08/05:30am 27.1 31.7 23.8 82 2.3 W 6 9 3 5 1007.7 - 0.0
08/05:00am 26.9 31.3 23.8 83 2.1 W 7 13 4 7 1007.7 - 0.0
08/04:30am 27.3 31.8 23.7 81 2.5 NW 6 9 3 5 1007.5 - 0.0
08/04:00am 27.9 32.1 23.5 77 3.0 WSW 7 11 4 6 1007.5 - 0.0
08/03:30am 27.8 32.7 23.6 78 2.9 W 4 9 2 5 1007.4 - 0.0
08/03:00am 28.2 32.1 23.6 76 3.2 W 9 15 5 8 1007.2 1007.1 0.0
08/02:30am 28.2 32.7 24.0 78 2.9 W 7 17 4 9 1007.5 - 0.0
08/02:00am 28.1 32.2 23.9 78 2.9 W 9 19 5 10 1007.9 - 0.0
08/01:30am 28.2 31.2 24.0 78 2.9 W 15 22 8 12 1008.3 - 0.0
08/01:00am 28.3 31.6 23.9 77 3.0 W 13 20 7 11 1008.6 - 0.0
08/12:30am 28.2 31.1 23.8 77 3.0 WNW 15 24 8 13 1008.9 - 0.0
08/12:00am 28.1 31.9 24.1 79 2.8 WNW 11 17 6 9 1009.0 1008.9 0.0
 
Date/Time
EST
Temp
°C
App
Temp
°C
Dew
Point
Rel
Hum
%
Delta-T
°C
Wind Press
QNH
hPa
Press
MSL
hPa
Rain
since 9 am
mm
Dir
 
Spd
km/h
Gust
km/h
Spd
kts
Gust
kts
07/11:30pm 27.3 32.2 24.4 84 2.0 NNW 6 7 3 4 1009.0 - 0.0
07/11:00pm 27.4 32.3 24.3 83 2.1 NW 6 9 3 5 1009.0 - 0.0
07/10:30pm 27.2 33.7 25.0 88 1.5 CALM 0 4 0 2 1009.0 - 0.0
07/10:00pm 27.4 33.4 24.8 86 1.8 NNW 2 6 1 3 1008.8 - 0.0
07/09:30pm 28.0 34.3 24.8 83 2.2 CALM 0 0 0 0 1008.6 - 0.0
07/09:00pm 28.1 35.1 25.9 88 1.6 CALM 0 0 0 0 1008.3 1008.2 0.0
07/08:30pm 28.6 35.7 26.0 86 1.8 CALM 0 0 0 0 1008.1 - 0.0
07/08:00pm 28.5 35.8 26.3 88 1.6 CALM 0 0 0 0 1007.7 - 0.0
07/07:30pm 28.9 36.6 26.9 89 1.4 CALM 0 0 0 0 1007.2 - 0.0
07/07:00pm 29.3 36.6 26.3 84 2.1 CALM 0 6 0 3 1006.7 - 0.0
07/06:30pm 29.7 35.7 26.3 82 2.4 WNW 7 13 4 7 1006.2 - 0.0
07/06:00pm 30.4 35.7 25.2 74 3.7 N 7 11 4 6 1005.7 1005.6 0.0
07/05:30pm 30.9 35.1 24.8 70 4.3 NNE 11 17 6 9 1005.3 - 0.0
07/05:00pm 31.6 36.5 25.2 69 4.5 NE 9 13 5 7 1005.0 - 0.0
07/04:30pm 31.7 35.8 24.6 66 5.0 NE 11 15 6 8 1004.8 - 0.0
07/04:00pm 31.6 36.3 25.5 70 4.3 NNE 11 13 6 7 1004.8 - 0.0
07/03:30pm 31.2 34.8 24.3 66 4.8 NE 13 17 7 9 1005.0 - 0.0
07/03:00pm 32.9 37.4 24.6 61 5.9 ENE 9 17 5 9 1005.2 1005.1 0.0
07/02:30pm 33.1 38.0 24.6 61 6.0 ENE 7 13 4 7 1005.3 - 0.0
07/02:00pm 32.5 37.4 24.3 62 5.7 ESE 6 11 3 6 1005.8 - 0.0
07/01:30pm 33.6 37.7 23.3 55 7.1 E 7 13 4 7 1006.0 - 0.0
07/01:00pm 32.8 37.3 23.7 58 6.3 E 6 13 3 7 1006.6 - 0.0
07/12:30pm 30.7 36.2 24.6 70 4.3 NNE 4 7 2 4 1007.1 - 0.0
07/12:00pm 31.3 36.1 24.2 66 5.0 WNW 6 13 3 7 1007.6 1007.5 0.0
07/11:30am 31.4 34.7 23.2 61 5.7 WNW 11 13 6 7 1008.1 - 0.0
07/11:00am 31.1 35.4 24.2 66 4.8 NNW 9 15 5 8 1008.4 - 0.0
07/10:30am 30.3 34.9 24.7 72 3.9 NNW 9 13 5 7 1008.7 - 0.0
07/10:00am 30.0 34.7 24.9 74 3.6 NW 9 13 5 7 1008.9 - 0.0
07/09:30am 29.4 33.2 24.7 76 3.3 NNW 13 19 7 10 1009.1 - 0.0
07/09:00am 29.7 34.1 25.0 76 3.3 NW 11 15 6 8 1008.9 1008.8 0.0
07/08:30am 29.2 33.8 25.4 80 2.7 NW 11 17 6 9 1008.9 - 0.0
07/08:00am 27.9 32.3 24.5 82 2.4 NW 9 13 5 7 1008.8 - 0.0
07/07:30am 26.7 31.7 24.5 88 1.5 NW 6 7 3 4 1008.5 - 0.0
07/07:00am 25.6 30.4 24.4 93 0.8 NW 7 9 4 5 1008.0 - 0.0
07/06:30am 24.9 29.6 24.0 95 0.6 WNW 6 7 3 4 1007.7 - 0.0
07/06:00am 24.8 29.3 23.9 95 0.6 NW 7 7 4 4 1007.5 1007.4 0.0
07/05:30am 24.9 29.4 24.0 95 0.6 NW 7 9 4 5 1007.0 - 0.0
07/05:00am 25.1 30.6 24.1 94 0.7 WNW 2 6 1 3 1006.7 - 0.0
07/04:30am 25.3 30.6 24.3 94 0.7 NW 4 7 2 4 1006.7 - 0.0
07/04:00am 25.2 31.0 24.0 93 0.8 CALM 0 6 0 3 1006.6 - 0.0
07/03:30am 25.3 31.2 24.1 93 0.8 CALM 0 0 0 0 1006.2 - 0.0
07/03:00am 25.4 31.2 24.0 92 1.0 CALM 0 6 0 3 1006.1 1006.0 0.0
07/02:30am 25.5 31.3 23.9 91 1.1 CALM 0 6 0 3 1006.2 - 0.0
07/02:00am 25.9 30.5 24.1 90 1.2 NW 7 11 4 6 1006.3 - 0.0
07/01:30am 25.7 30.3 24.1 91 1.1 NNW 7 9 4 5 1006.7 - 0.0
07/01:00am 25.7 31.7 24.3 92 1.0 CALM 0 6 0 3 1007.0 - 0.0
07/12:30am 26.3 32.4 24.5 90 1.2 CALM 0 0 0 0 1007.3 - 0.0
07/12:00am 26.0 31.8 24.0 89 1.4 CALM 0 2 0 1 1007.7 1007.6 0.0
 
Date/Time
EST
Temp
°C
App
Temp
°C
Dew
Point
Rel
Hum
%
Delta-T
°C
Wind Press
QNH
hPa
Press
MSL
hPa
Rain
since 9 am
mm
Dir
 
Spd
km/h
Gust
km/h
Spd
kts
Gust
kts
06/11:30pm 26.2 32.1 24.1 88 1.4 CALM 0 0 0 0 1007.9 - 0.0
06/11:00pm 26.3 32.3 24.3 89 1.4 CALM 0 0 0 0 1007.9 - 0.0
06/10:30pm 26.5 32.5 24.3 88 1.5 CALM 0 0 0 0 1007.8 - 0.0
06/10:00pm 26.7 32.7 24.2 86 1.7 CALM 0 0 0 0 1007.5 - 0.0
06/09:30pm 27.8 33.9 24.4 82 2.4 CALM 0 2 0 1 1007.2 - 0.0
06/09:00pm 28.5 32.7 23.4 74 3.5 NW 7 11 4 6 1006.8 1006.7 0.0
06/08:30pm 28.9 32.5 23.8 74 3.5 WNW 11 15 6 8 1006.3 - 0.0
06/08:00pm 29.5 33.2 23.9 72 3.9 W 11 19 6 10 1005.8 - 0.0
06/07:30pm 29.7 33.0 23.9 71 4.0 W 13 19 7 10 1005.3 - 0.0
06/07:00pm 30.4 33.2 23.6 67 4.7 WSW 15 19 8 10 1005.0 - 0.0
06/06:30pm 31.3 34.0 23.4 63 5.5 WNW 15 20 8 11 1004.2 - 0.0
06/06:00pm 32.1 34.5 23.6 60 5.9 W 17 24 9 13 1003.6 1003.5 0.0
06/05:30pm 32.3 34.5 23.3 59 6.2 W 17 24 9 13 1003.5 - 0.0
06/05:00pm 32.2 34.5 23.4 59 6.1 W 17 24 9 13 1003.5 - 0.0
06/04:30pm 32.1 35.6 24.2 63 5.5 WNW 13 17 7 9 1003.3 - 0.0
06/04:00pm 31.7 34.3 24.0 63 5.4 W 17 22 9 12 1003.3 - 0.0

Other Formats:

Comma delimited format used in spreadsheet applications
http://www.bom.gov.au/fwo/IDQ60801/IDQ60801.94186.axf

JavaScript Object Notation format (JSON) in row-major order
http://www.bom.gov.au/fwo/IDQ60801/IDQ60801.94186.json